Reynolds, Indiana
Current Conditions -  °F | °C
As of 5:15 PM on Saturday 25 Oct 2014 (Local Time) from KMCX Reporting Station
Clear Clear  
Wind Chill: 72°   Ceiling: Unl
Heat Index: 72°   Visibility: 10mi
Dew Point: 43°   Wind: 10mph
Humidity: 34%   Direction: 280°W
Pressure: 29.91"   Gusts: 17mph
Location:  40.75°N, 86.87°W
Report Text: KMCX 252115Z AUTO 28009G15KT 10SM CLR 22/06 A2991 RMK AO2 T02240059
Loading
Personal Weather Stations






























Interactive Weather Map
Tropical Storm Tracking
New forecast layout! Learn more

10-Day Weather Forecast

Advertisements
Track Severe Weather on mobile